sensor_id;sensor_type;location;lat;lon;timestamp;temperature;humidity
37678;DHT22;23517;50.390;8.616;2022-07-12T00:02:01;14.70;70.60
37678;DHT22;23517;50.390;8.616;2022-07-12T00:04:29;14.70;70.30
37678;DHT22;23517;50.390;8.616;2022-07-12T00:06:56;14.70;70.40
37678;DHT22;23517;50.390;8.616;2022-07-12T00:09:22;14.60;70.20
37678;DHT22;23517;50.390;8.616;2022-07-12T00:11:49;14.60;70.60
37678;DHT22;23517;50.390;8.616;2022-07-12T00:14:16;14.50;70.80
37678;DHT22;23517;50.390;8.616;2022-07-12T00:16:43;14.50;70.40
37678;DHT22;23517;50.390;8.616;2022-07-12T00:19:10;14.50;70.60
37678;DHT22;23517;50.390;8.616;2022-07-12T00:21:36;14.40;70.60
37678;DHT22;23517;50.390;8.616;2022-07-12T00:24:03;14.50;70.60
37678;DHT22;23517;50.390;8.616;2022-07-12T00:26:31;14.50;70.50
37678;DHT22;23517;50.390;8.616;2022-07-12T00:28:57;14.50;69.40
37678;DHT22;23517;50.390;8.616;2022-07-12T00:31:25;14.50;70.40
37678;DHT22;23517;50.390;8.616;2022-07-12T00:33:51;14.50;70.50
37678;DHT22;23517;50.390;8.616;2022-07-12T00:36:19;14.40;71.00
37678;DHT22;23517;50.390;8.616;2022-07-12T00:38:46;14.40;71.20
37678;DHT22;23517;50.390;8.616;2022-07-12T00:41:13;14.40;71.90
37678;DHT22;23517;50.390;8.616;2022-07-12T00:43:40;14.50;71.80
37678;DHT22;23517;50.390;8.616;2022-07-12T00:46:08;14.60;71.50
37678;DHT22;23517;50.390;8.616;2022-07-12T00:48:38;14.60;71.60
37678;DHT22;23517;50.390;8.616;2022-07-12T00:51:05;14.60;72.10
37678;DHT22;23517;50.390;8.616;2022-07-12T00:53:32;14.70;72.30
37678;DHT22;23517;50.390;8.616;2022-07-12T00:55:59;14.70;72.00
37678;DHT22;23517;50.390;8.616;2022-07-12T00:58:28;14.70;72.40
37678;DHT22;23517;50.390;8.616;2022-07-12T01:00:55;14.80;72.50
37678;DHT22;23517;50.390;8.616;2022-07-12T01:03:24;14.70;72.70
37678;DHT22;23517;50.390;8.616;2022-07-12T01:05:51;14.70;72.50
37678;DHT22;23517;50.390;8.616;2022-07-12T01:08:19;14.70;72.50
37678;DHT22;23517;50.390;8.616;2022-07-12T01:10:48;14.70;72.70
37678;DHT22;23517;50.390;8.616;2022-07-12T01:13:16;14.60;72.50
37678;DHT22;23517;50.390;8.616;2022-07-12T01:15:45;14.60;72.90
37678;DHT22;23517;50.390;8.616;2022-07-12T01:18:14;14.60;73.10
37678;DHT22;23517;50.390;8.616;2022-07-12T01:20:43;14.50;73.10
37678;DHT22;23517;50.390;8.616;2022-07-12T01:23:12;14.40;73.00
37678;DHT22;23517;50.390;8.616;2022-07-12T01:25:39;14.40;72.80
37678;DHT22;23517;50.390;8.616;2022-07-12T01:28:06;14.30;72.80
37678;DHT22;23517;50.390;8.616;2022-07-12T01:30:33;14.30;73.20
37678;DHT22;23517;50.390;8.616;2022-07-12T01:33:00;14.30;73.00
37678;DHT22;23517;50.390;8.616;2022-07-12T01:35:28;14.20;72.70
37678;DHT22;23517;50.390;8.616;2022-07-12T01:37:56;14.20;71.50
37678;DHT22;23517;50.390;8.616;2022-07-12T01:40:23;14.10;72.10
37678;DHT22;23517;50.390;8.616;2022-07-12T01:42:50;14.10;72.40
37678;DHT22;23517;50.390;8.616;2022-07-12T01:45:18;14.00;72.30
37678;DHT22;23517;50.390;8.616;2022-07-12T01:47:45;13.90;72.70
37678;DHT22;23517;50.390;8.616;2022-07-12T01:50:11;13.90;72.00
37678;DHT22;23517;50.390;8.616;2022-07-12T01:52:40;13.80;71.40
37678;DHT22;23517;50.390;8.616;2022-07-12T01:55:11;13.70;70.70
37678;DHT22;23517;50.390;8.616;2022-07-12T01:57:41;13.70;70.70
37678;DHT22;23517;50.390;8.616;2022-07-12T02:00:10;13.60;70.60
37678;DHT22;23517;50.390;8.616;2022-07-12T02:02:39;13.50;71.30
37678;DHT22;23517;50.390;8.616;2022-07-12T02:05:06;13.40;71.40
37678;DHT22;23517;50.390;8.616;2022-07-12T02:07:33;13.30;71.90
37678;DHT22;23517;50.390;8.616;2022-07-12T02:10:00;13.30;72.40
37678;DHT22;23517;50.390;8.616;2022-07-12T02:12:27;13.30;72.70
37678;DHT22;23517;50.390;8.616;2022-07-12T02:14:56;13.30;72.70
37678;DHT22;23517;50.390;8.616;2022-07-12T02:17:23;13.30;71.40
37678;DHT22;23517;50.390;8.616;2022-07-12T02:19:50;13.20;71.00
37678;DHT22;23517;50.390;8.616;2022-07-12T02:22:18;13.20;71.30
37678;DHT22;23517;50.390;8.616;2022-07-12T02:24:45;13.10;71.60
37678;DHT22;23517;50.390;8.616;2022-07-12T02:27:12;13.00;71.40
37678;DHT22;23517;50.390;8.616;2022-07-12T02:29:38;13.00;72.00
37678;DHT22;23517;50.390;8.616;2022-07-12T02:32:07;13.00;72.70
37678;DHT22;23517;50.390;8.616;2022-07-12T02:34:34;12.90;72.80
37678;DHT22;23517;50.390;8.616;2022-07-12T02:37:01;13.00;72.70
37678;DHT22;23517;50.390;8.616;2022-07-12T02:39:29;13.00;72.40
37678;DHT22;23517;50.390;8.616;2022-07-12T02:41:55;13.00;72.10
37678;DHT22;23517;50.390;8.616;2022-07-12T02:44:22;13.00;72.70
37678;DHT22;23517;50.390;8.616;2022-07-12T02:46:49;13.00;73.10
37678;DHT22;23517;50.390;8.616;2022-07-12T02:49:15;13.00;73.20
37678;DHT22;23517;50.390;8.616;2022-07-12T02:51:42;13.00;73.70
37678;DHT22;23517;50.390;8.616;2022-07-12T02:54:09;13.00;73.50
37678;DHT22;23517;50.390;8.616;2022-07-12T02:56:36;13.00;73.30
37678;DHT22;23517;50.390;8.616;2022-07-12T02:59:02;13.00;72.50
37678;DHT22;23517;50.390;8.616;2022-07-12T03:01:29;13.00;73.10
37678;DHT22;23517;50.390;8.616;2022-07-12T03:03:56;13.00;73.20
37678;DHT22;23517;50.390;8.616;2022-07-12T03:06:23;13.00;73.30
37678;DHT22;23517;50.390;8.616;2022-07-12T03:08:50;13.00;72.90
37678;DHT22;23517;50.390;8.616;2022-07-12T03:11:17;13.00;72.90
37678;DHT22;23517;50.390;8.616;2022-07-12T03:13:43;12.90;73.50
37678;DHT22;23517;50.390;8.616;2022-07-12T03:16:10;12.90;73.50
37678;DHT22;23517;50.390;8.616;2022-07-12T03:18:39;12.90;73.20
37678;DHT22;23517;50.390;8.616;2022-07-12T03:21:07;12.90;73.30
37678;DHT22;23517;50.390;8.616;2022-07-12T03:23:34;13.00;73.30
37678;DHT22;23517;50.390;8.616;2022-07-12T03:26:01;13.00;73.50
37678;DHT22;23517;50.390;8.616;2022-07-12T03:28:28;13.00;73.30
37678;DHT22;23517;50.390;8.616;2022-07-12T03:30:55;13.00;73.30
37678;DHT22;23517;50.390;8.616;2022-07-12T03:33:22;13.00;73.20
37678;DHT22;23517;50.390;8.616;2022-07-12T03:35:49;13.00;73.50
37678;DHT22;23517;50.390;8.616;2022-07-12T03:38:15;12.90;73.90
37678;DHT22;23517;50.390;8.616;2022-07-12T03:40:43;12.90;74.80
37678;DHT22;23517;50.390;8.616;2022-07-12T03:43:10;12.90;75.10
37678;DHT22;23517;50.390;8.616;2022-07-12T03:45:37;13.00;74.80
37678;DHT22;23517;50.390;8.616;2022-07-12T03:48:05;13.00;75.20
37678;DHT22;23517;50.390;8.616;2022-07-12T03:50:32;13.00;75.70
37678;DHT22;23517;50.390;8.616;2022-07-12T03:52:59;13.00;76.10
37678;DHT22;23517;50.390;8.616;2022-07-12T03:55:26;13.00;76.50
37678;DHT22;23517;50.390;8.616;2022-07-12T03:57:53;13.10;75.70
37678;DHT22;23517;50.390;8.616;2022-07-12T04:00:20;13.10;76.10
37678;DHT22;23517;50.390;8.616;2022-07-12T04:02:46;13.10;75.60
37678;DHT22;23517;50.390;8.616;2022-07-12T04:05:13;13.10;75.60
37678;DHT22;23517;50.390;8.616;2022-07-12T04:07:40;13.20;75.40
37678;DHT22;23517;50.390;8.616;2022-07-12T04:10:09;13.20;75.30
37678;DHT22;23517;50.390;8.616;2022-07-12T04:12:36;13.20;75.20
37678;DHT22;23517;50.390;8.616;2022-07-12T04:15:04;13.20;76.00
37678;DHT22;23517;50.390;8.616;2022-07-12T04:17:32;13.20;76.10
37678;DHT22;23517;50.390;8.616;2022-07-12T04:19:59;13.20;75.90
37678;DHT22;23517;50.390;8.616;2022-07-12T04:22:26;13.20;75.80
37678;DHT22;23517;50.390;8.616;2022-07-12T04:24:52;13.20;75.40
37678;DHT22;23517;50.390;8.616;2022-07-12T04:27:19;13.20;74.70
37678;DHT22;23517;50.390;8.616;2022-07-12T04:29:46;13.20;74.10
37678;DHT22;23517;50.390;8.616;2022-07-12T04:32:12;13.30;74.10
37678;DHT22;23517;50.390;8.616;2022-07-12T04:34:39;13.30;73.70
37678;DHT22;23517;50.390;8.616;2022-07-12T04:37:06;13.30;73.10
37678;DHT22;23517;50.390;8.616;2022-07-12T04:39:32;13.50;73.30
37678;DHT22;23517;50.390;8.616;2022-07-12T04:41:59;13.40;74.40
37678;DHT22;23517;50.390;8.616;2022-07-12T04:44:26;13.60;74.70
37678;DHT22;23517;50.390;8.616;2022-07-12T04:46:52;13.70;73.70
37678;DHT22;23517;50.390;8.616;2022-07-12T04:49:19;13.80;74.30
37678;DHT22;23517;50.390;8.616;2022-07-12T04:51:46;14.30;72.20
37678;DHT22;23517;50.390;8.616;2022-07-12T04:54:13;15.00;67.60
37678;DHT22;23517;50.390;8.616;2022-07-12T04:56:39;15.70;64.60
37678;DHT22;23517;50.390;8.616;2022-07-12T04:59:06;16.30;62.60
37678;DHT22;23517;50.390;8.616;2022-07-12T05:01:33;17.00;58.10
37678;DHT22;23517;50.390;8.616;2022-07-12T05:04:00;17.20;56.80
37678;DHT22;23517;50.390;8.616;2022-07-12T05:06:26;17.10;57.20
37678;DHT22;23517;50.390;8.616;2022-07-12T05:08:53;16.70;59.30
37678;DHT22;23517;50.390;8.616;2022-07-12T05:11:20;16.60;59.60
37678;DHT22;23517;50.390;8.616;2022-07-12T05:13:47;16.60;60.70
37678;DHT22;23517;50.390;8.616;2022-07-12T05:16:14;16.70;60.00
37678;DHT22;23517;50.390;8.616;2022-07-12T05:18:41;16.70;60.80
37678;DHT22;23517;50.390;8.616;2022-07-12T05:21:08;16.90;60.90
37678;DHT22;23517;50.390;8.616;2022-07-12T05:23:34;17.10;60.10
37678;DHT22;23517;50.390;8.616;2022-07-12T05:26:01;17.20;60.20
37678;DHT22;23517;50.390;8.616;2022-07-12T05:28:28;17.30;60.30
37678;DHT22;23517;50.390;8.616;2022-07-12T05:30:55;17.50;59.80
37678;DHT22;23517;50.390;8.616;2022-07-12T05:33:22;18.00;59.50
37678;DHT22;23517;50.390;8.616;2022-07-12T05:35:49;18.40;58.10
37678;DHT22;23517;50.390;8.616;2022-07-12T05:38:17;18.90;56.10
37678;DHT22;23517;50.390;8.616;2022-07-12T05:40:44;19.30;55.90
37678;DHT22;23517;50.390;8.616;2022-07-12T05:43:11;19.80;53.40
37678;DHT22;23517;50.390;8.616;2022-07-12T05:45:37;20.20;52.20
37678;DHT22;23517;50.390;8.616;2022-07-12T05:48:05;20.50;51.70
37678;DHT22;23517;50.390;8.616;2022-07-12T05:50:31;21.10;49.70
37678;DHT22;23517;50.390;8.616;2022-07-12T05:52:58;21.60;49.20
37678;DHT22;23517;50.390;8.616;2022-07-12T05:55:43;22.40;45.60
37678;DHT22;23517;50.390;8.616;2022-07-12T05:58:12;23.90;40.60
37678;DHT22;23517;50.390;8.616;2022-07-12T06:00:39;25.70;35.90
37678;DHT22;23517;50.390;8.616;2022-07-12T06:03:08;26.60;33.40
37678;DHT22;23517;50.390;8.616;2022-07-12T06:05:35;27.90;31.20
37678;DHT22;23517;50.390;8.616;2022-07-12T06:08:02;29.10;28.20
37678;DHT22;23517;50.390;8.616;2022-07-12T06:10:29;28.80;29.10
37678;DHT22;23517;50.390;8.616;2022-07-12T06:13:01;29.50;27.50
37678;DHT22;23517;50.390;8.616;2022-07-12T06:15:28;30.70;26.10
37678;DHT22;23517;50.390;8.616;2022-07-12T06:18:01;31.00;25.00
37678;DHT22;23517;50.390;8.616;2022-07-12T06:20:29;31.30;24.70
37678;DHT22;23517;50.390;8.616;2022-07-12T06:22:56;31.50;24.20
37678;DHT22;23517;50.390;8.616;2022-07-12T06:25:23;31.10;24.90
37678;DHT22;23517;50.390;8.616;2022-07-12T06:28:10;31.80;23.80
37678;DHT22;23517;50.390;8.616;2022-07-12T06:30:37;32.20;23.20
37678;DHT22;23517;50.390;8.616;2022-07-12T06:33:04;32.00;23.70
37678;DHT22;23517;50.390;8.616;2022-07-12T06:35:33;32.30;22.90
37678;DHT22;23517;50.390;8.616;2022-07-12T06:38:01;32.30;23.30
37678;DHT22;23517;50.390;8.616;2022-07-12T06:40:28;32.20;23.30
37678;DHT22;23517;50.390;8.616;2022-07-12T06:42:55;31.20;24.80
37678;DHT22;23517;50.390;8.616;2022-07-12T06:45:22;31.40;23.80
37678;DHT22;23517;50.390;8.616;2022-07-12T06:47:50;31.60;23.80
37678;DHT22;23517;50.390;8.616;2022-07-12T06:50:17;32.50;22.60
37678;DHT22;23517;50.390;8.616;2022-07-12T06:52:44;33.30;21.10
37678;DHT22;23517;50.390;8.616;2022-07-12T06:55:11;33.30;21.00
37678;DHT22;23517;50.390;8.616;2022-07-12T06:57:38;33.40;21.10
37678;DHT22;23517;50.390;8.616;2022-07-12T07:00:06;33.40;20.50
37678;DHT22;23517;50.390;8.616;2022-07-12T07:02:33;33.90;19.60
37678;DHT22;23517;50.390;8.616;2022-07-12T07:05:00;34.00;20.10
37678;DHT22;23517;50.390;8.616;2022-07-12T07:07:27;33.80;20.20
37678;DHT22;23517;50.390;8.616;2022-07-12T07:09:53;33.80;20.40
37678;DHT22;23517;50.390;8.616;2022-07-12T07:12:20;34.20;20.20
37678;DHT22;23517;50.390;8.616;2022-07-12T07:14:47;34.50;19.50
37678;DHT22;23517;50.390;8.616;2022-07-12T07:17:18;33.50;19.90
37678;DHT22;23517;50.390;8.616;2022-07-12T07:19:46;32.40;22.40
37678;DHT22;23517;50.390;8.616;2022-07-12T07:22:13;33.30;21.70
37678;DHT22;23517;50.390;8.616;2022-07-12T07:24:40;33.30;21.10
37678;DHT22;23517;50.390;8.616;2022-07-12T07:27:07;33.80;20.10
37678;DHT22;23517;50.390;8.616;2022-07-12T07:29:34;33.50;20.70
37678;DHT22;23517;50.390;8.616;2022-07-12T07:32:20;33.60;20.10
37678;DHT22;23517;50.390;8.616;2022-07-12T07:34:47;34.40;19.80
37678;DHT22;23517;50.390;8.616;2022-07-12T07:37:22;34.90;18.70
37678;DHT22;23517;50.390;8.616;2022-07-12T07:39:49;33.50;20.20
37678;DHT22;23517;50.390;8.616;2022-07-12T07:42:16;34.10;19.50
37678;DHT22;23517;50.390;8.616;2022-07-12T07:44:43;34.70;19.20
37678;DHT22;23517;50.390;8.616;2022-07-12T07:47:29;34.20;19.10
37678;DHT22;23517;50.390;8.616;2022-07-12T07:49:56;35.00;19.00
37678;DHT22;23517;50.390;8.616;2022-07-12T07:52:23;35.00;19.10
37678;DHT22;23517;50.390;8.616;2022-07-12T07:54:49;36.10;17.70
37678;DHT22;23517;50.390;8.616;2022-07-12T07:59:43;34.50;18.40
37678;DHT22;23517;50.390;8.616;2022-07-12T08:02:11;34.10;19.30
37678;DHT22;23517;50.390;8.616;2022-07-12T08:04:38;31.50;22.00
37678;DHT22;23517;50.390;8.616;2022-07-12T08:07:05;29.70;24.80
37678;DHT22;23517;50.390;8.616;2022-07-12T08:09:32;29.60;25.10
37678;DHT22;23517;50.390;8.616;2022-07-12T08:11:58;30.70;23.90
37678;DHT22;23517;50.390;8.616;2022-07-12T08:14:25;31.80;22.20
37678;DHT22;23517;50.390;8.616;2022-07-12T08:16:52;33.30;20.10
37678;DHT22;23517;50.390;8.616;2022-07-12T08:19:19;32.50;20.50
37678;DHT22;23517;50.390;8.616;2022-07-12T08:24:12;31.10;21.20
37678;DHT22;23517;50.390;8.616;2022-07-12T08:26:39;30.10;23.50
37678;DHT22;23517;50.390;8.616;2022-07-12T08:29:06;29.70;25.10
37678;DHT22;23517;50.390;8.616;2022-07-12T08:31:33;29.50;24.90
37678;DHT22;23517;50.390;8.616;2022-07-12T08:34:00;28.20;26.40
37678;DHT22;23517;50.390;8.616;2022-07-12T08:36:26;27.00;29.00
37678;DHT22;23517;50.390;8.616;2022-07-12T08:38:59;26.00;30.60
37678;DHT22;23517;50.390;8.616;2022-07-12T08:41:26;26.80;29.70
37678;DHT22;23517;50.390;8.616;2022-07-12T08:43:53;28.00;28.30
37678;DHT22;23517;50.390;8.616;2022-07-12T08:46:19;30.60;23.30
37678;DHT22;23517;50.390;8.616;2022-07-12T08:48:46;32.00;20.80
37678;DHT22;23517;50.390;8.616;2022-07-12T08:51:15;30.50;22.60
37678;DHT22;23517;50.390;8.616;2022-07-12T08:53:45;28.90;24.50
37678;DHT22;23517;50.390;8.616;2022-07-12T08:56:33;28.00;26.70
37678;DHT22;23517;50.390;8.616;2022-07-12T08:59:18;28.90;25.70
37678;DHT22;23517;50.390;8.616;2022-07-12T09:01:47;29.80;22.00
37678;DHT22;23517;50.390;8.616;2022-07-12T09:04:25;28.30;24.60
37678;DHT22;23517;50.390;8.616;2022-07-12T09:09:34;26.90;26.70
37678;DHT22;23517;50.390;8.616;2022-07-12T09:12:04;26.00;29.60
37678;DHT22;23517;50.390;8.616;2022-07-12T09:14:31;25.80;30.30
37678;DHT22;23517;50.390;8.616;2022-07-12T09:17:02;26.90;28.10
37678;DHT22;23517;50.390;8.616;2022-07-12T09:19:31;28.80;25.20
37678;DHT22;23517;50.390;8.616;2022-07-12T09:21:58;31.10;21.00
37678;DHT22;23517;50.390;8.616;2022-07-12T09:27:01;34.80;16.70
37678;DHT22;23517;50.390;8.616;2022-07-12T09:29:30;34.30;18.20
37678;DHT22;23517;50.390;8.616;2022-07-12T09:32:06;33.20;18.70
37678;DHT22;23517;50.390;8.616;2022-07-12T09:34:58;33.00;18.20
37678;DHT22;23517;50.390;8.616;2022-07-12T09:37:44;32.10;19.00
37678;DHT22;23517;50.390;8.616;2022-07-12T09:40:11;33.20;18.30
37678;DHT22;23517;50.390;8.616;2022-07-12T09:42:42;33.40;18.30
37678;DHT22;23517;50.390;8.616;2022-07-12T09:45:10;33.10;18.60
37678;DHT22;23517;50.390;8.616;2022-07-12T09:47:37;33.90;17.10
37678;DHT22;23517;50.390;8.616;2022-07-12T09:50:05;34.60;16.70
37678;DHT22;23517;50.390;8.616;2022-07-12T09:52:37;34.90;16.40
37678;DHT22;23517;50.390;8.616;2022-07-12T09:55:07;34.80;16.10
37678;DHT22;23517;50.390;8.616;2022-07-12T09:57:39;33.80;16.60
37678;DHT22;23517;50.390;8.616;2022-07-12T10:00:08;34.20;16.40
37678;DHT22;23517;50.390;8.616;2022-07-12T10:02:38;34.60;16.10
37678;DHT22;23517;50.390;8.616;2022-07-12T10:05:08;34.80;16.40
37678;DHT22;23517;50.390;8.616;2022-07-12T10:07:38;35.40;16.20
37678;DHT22;23517;50.390;8.616;2022-07-12T10:10:05;36.00;15.20
37678;DHT22;23517;50.390;8.616;2022-07-12T10:12:34;35.50;15.50
37678;DHT22;23517;50.390;8.616;2022-07-12T10:15:03;35.30;16.90
37678;DHT22;23517;50.390;8.616;2022-07-12T10:17:32;34.70;16.20
37678;DHT22;23517;50.390;8.616;2022-07-12T10:20:16;34.70;15.90
37678;DHT22;23517;50.390;8.616;2022-07-12T10:22:45;33.50;15.80
37678;DHT22;23517;50.390;8.616;2022-07-12T10:25:29;32.30;17.00
37678;DHT22;23517;50.390;8.616;2022-07-12T10:28:00;31.70;17.90
37678;DHT22;23517;50.390;8.616;2022-07-12T10:30:27;30.80;19.20
37678;DHT22;23517;50.390;8.616;2022-07-12T10:32:58;30.10;20.10
37678;DHT22;23517;50.390;8.616;2022-07-12T10:35:30;29.20;20.20
37678;DHT22;23517;50.390;8.616;2022-07-12T10:40:40;27.50;22.10
37678;DHT22;23517;50.390;8.616;2022-07-12T10:43:12;26.80;23.30
37678;DHT22;23517;50.390;8.616;2022-07-12T10:45:41;26.60;25.20
37678;DHT22;23517;50.390;8.616;2022-07-12T10:53:36;26.20;25.70
37678;DHT22;23517;50.390;8.616;2022-07-12T10:56:16;26.00;26.00
37678;DHT22;23517;50.390;8.616;2022-07-12T10:58:55;25.70;25.70
37678;DHT22;23517;50.390;8.616;2022-07-12T11:04:09;25.90;25.10
37678;DHT22;23517;50.390;8.616;2022-07-12T11:06:38;25.80;23.80
37678;DHT22;23517;50.390;8.616;2022-07-12T11:09:09;25.90;24.00
37678;DHT22;23517;50.390;8.616;2022-07-12T11:11:44;25.80;23.60
37678;DHT22;23517;50.390;8.616;2022-07-12T11:14:19;25.60;24.20
37678;DHT22;23517;50.390;8.616;2022-07-12T11:16:58;25.70;23.80
37678;DHT22;23517;50.390;8.616;2022-07-12T11:19:28;25.70;24.00
37678;DHT22;23517;50.390;8.616;2022-07-12T11:21:57;25.70;24.60
37678;DHT22;23517;50.390;8.616;2022-07-12T11:24:30;25.60;24.60
37678;DHT22;23517;50.390;8.616;2022-07-12T11:26:58;25.70;24.60
37678;DHT22;23517;50.390;8.616;2022-07-12T11:29:27;26.00;24.50
37678;DHT22;23517;50.390;8.616;2022-07-12T11:32:01;26.10;24.10
37678;DHT22;23517;50.390;8.616;2022-07-12T11:34:37;26.10;23.00
37678;DHT22;23517;50.390;8.616;2022-07-12T11:37:04;26.20;22.20
37678;DHT22;23517;50.390;8.616;2022-07-12T11:39:39;25.90;21.90
37678;DHT22;23517;50.390;8.616;2022-07-12T11:42:07;25.70;23.00
37678;DHT22;23517;50.390;8.616;2022-07-12T11:44:51;25.70;22.10
37678;DHT22;23517;50.390;8.616;2022-07-12T11:47:22;25.70;22.90
37678;DHT22;23517;50.390;8.616;2022-07-12T11:49:54;25.90;23.00
37678;DHT22;23517;50.390;8.616;2022-07-12T11:52:22;26.00;22.00
37678;DHT22;23517;50.390;8.616;2022-07-12T11:54:51;25.80;22.40
37678;DHT22;23517;50.390;8.616;2022-07-12T11:57:21;25.80;22.10
37678;DHT22;23517;50.390;8.616;2022-07-12T11:59:48;25.80;22.90
37678;DHT22;23517;50.390;8.616;2022-07-12T12:02:16;26.00;23.50
37678;DHT22;23517;50.390;8.616;2022-07-12T12:04:50;25.90;23.40
37678;DHT22;23517;50.390;8.616;2022-07-12T12:07:20;25.80;23.20
37678;DHT22;23517;50.390;8.616;2022-07-12T12:12:57;26.00;23.30
37678;DHT22;23517;50.390;8.616;2022-07-12T12:20:32;26.10;22.80
37678;DHT22;23517;50.390;8.616;2022-07-12T12:23:13;26.10;22.60
37678;DHT22;23517;50.390;8.616;2022-07-12T12:25:42;26.20;22.50
37678;DHT22;23517;50.390;8.616;2022-07-12T12:28:09;26.30;21.80
37678;DHT22;23517;50.390;8.616;2022-07-12T12:30:50;26.20;22.00
37678;DHT22;23517;50.390;8.616;2022-07-12T12:36:29;26.50;22.30
37678;DHT22;23517;50.390;8.616;2022-07-12T12:39:02;26.50;21.50
37678;DHT22;23517;50.390;8.616;2022-07-12T12:41:38;26.30;20.70
37678;DHT22;23517;50.390;8.616;2022-07-12T12:44:07;26.30;21.40
37678;DHT22;23517;50.390;8.616;2022-07-12T12:46:55;26.50;21.10
37678;DHT22;23517;50.390;8.616;2022-07-12T12:49:51;26.60;21.00
37678;DHT22;23517;50.390;8.616;2022-07-12T12:52:24;26.60;21.20
37678;DHT22;23517;50.390;8.616;2022-07-12T12:54:51;26.70;21.20
37678;DHT22;23517;50.390;8.616;2022-07-12T12:57:18;26.70;21.20
37678;DHT22;23517;50.390;8.616;2022-07-12T12:59:45;26.70;20.70
37678;DHT22;23517;50.390;8.616;2022-07-12T13:02:12;26.90;20.00
37678;DHT22;23517;50.390;8.616;2022-07-12T13:04:39;27.00;20.70
37678;DHT22;23517;50.390;8.616;2022-07-12T13:07:06;26.90;20.40
37678;DHT22;23517;50.390;8.616;2022-07-12T13:09:38;26.80;19.80
37678;DHT22;23517;50.390;8.616;2022-07-12T13:12:06;26.80;19.10
37678;DHT22;23517;50.390;8.616;2022-07-12T13:14:34;26.80;19.00
37678;DHT22;23517;50.390;8.616;2022-07-12T13:17:01;26.90;19.30
37678;DHT22;23517;50.390;8.616;2022-07-12T13:19:28;27.00;19.70
37678;DHT22;23517;50.390;8.616;2022-07-12T13:21:55;27.10;19.00
37678;DHT22;23517;50.390;8.616;2022-07-12T13:24:22;27.20;19.00
37678;DHT22;23517;50.390;8.616;2022-07-12T13:26:48;27.30;19.60
37678;DHT22;23517;50.390;8.616;2022-07-12T13:29:15;27.30;19.20
37678;DHT22;23517;50.390;8.616;2022-07-12T13:31:42;27.30;19.40
37678;DHT22;23517;50.390;8.616;2022-07-12T13:34:09;27.30;18.10
37678;DHT22;23517;50.390;8.616;2022-07-12T13:36:35;27.40;18.10
37678;DHT22;23517;50.390;8.616;2022-07-12T13:39:02;27.20;19.80
37678;DHT22;23517;50.390;8.616;2022-07-12T13:41:48;27.20;19.00
37678;DHT22;23517;50.390;8.616;2022-07-12T13:44:14;27.20;19.70
37678;DHT22;23517;50.390;8.616;2022-07-12T13:46:48;27.20;19.70
37678;DHT22;23517;50.390;8.616;2022-07-12T13:49:15;27.30;19.00
37678;DHT22;23517;50.390;8.616;2022-07-12T13:51:42;27.40;20.00
37678;DHT22;23517;50.390;8.616;2022-07-12T13:54:09;27.50;21.20
37678;DHT22;23517;50.390;8.616;2022-07-12T13:56:35;27.40;21.10
37678;DHT22;23517;50.390;8.616;2022-07-12T13:59:03;27.50;21.10
37678;DHT22;23517;50.390;8.616;2022-07-12T14:01:30;27.80;20.70
37678;DHT22;23517;50.390;8.616;2022-07-12T14:03:57;27.90;19.70
37678;DHT22;23517;50.390;8.616;2022-07-12T14:06:25;28.00;20.60
37678;DHT22;23517;50.390;8.616;2022-07-12T14:08:52;28.00;19.90
37678;DHT22;23517;50.390;8.616;2022-07-12T14:11:20;28.00;20.00
37678;DHT22;23517;50.390;8.616;2022-07-12T14:13:47;28.00;20.20
37678;DHT22;23517;50.390;8.616;2022-07-12T14:16:14;28.00;19.80
37678;DHT22;23517;50.390;8.616;2022-07-12T14:18:41;27.80;19.90
37678;DHT22;23517;50.390;8.616;2022-07-12T14:21:08;27.90;20.00
37678;DHT22;23517;50.390;8.616;2022-07-12T14:23:36;28.10;20.40
37678;DHT22;23517;50.390;8.616;2022-07-12T14:26:03;28.30;20.00
37678;DHT22;23517;50.390;8.616;2022-07-12T14:28:30;28.50;19.90
37678;DHT22;23517;50.390;8.616;2022-07-12T14:30:56;28.60;19.40
37678;DHT22;23517;50.390;8.616;2022-07-12T14:33:23;28.70;18.90
37678;DHT22;23517;50.390;8.616;2022-07-12T14:35:50;28.80;18.40
37678;DHT22;23517;50.390;8.616;2022-07-12T14:38:17;28.90;18.60
37678;DHT22;23517;50.390;8.616;2022-07-12T14:40:43;29.10;18.30
37678;DHT22;23517;50.390;8.616;2022-07-12T14:43:10;29.20;18.50
37678;DHT22;23517;50.390;8.616;2022-07-12T14:45:37;29.10;18.20
37678;DHT22;23517;50.390;8.616;2022-07-12T14:48:04;29.00;18.40
37678;DHT22;23517;50.390;8.616;2022-07-12T14:50:31;28.90;18.20
37678;DHT22;23517;50.390;8.616;2022-07-12T14:52:58;28.90;18.40
37678;DHT22;23517;50.390;8.616;2022-07-12T14:55:25;29.00;18.30
37678;DHT22;23517;50.390;8.616;2022-07-12T14:57:51;29.00;18.20
37678;DHT22;23517;50.390;8.616;2022-07-12T15:00:18;29.10;17.70
37678;DHT22;23517;50.390;8.616;2022-07-12T15:02:46;29.00;16.50
37678;DHT22;23517;50.390;8.616;2022-07-12T15:05:19;29.00;17.10
37678;DHT22;23517;50.390;8.616;2022-07-12T15:07:46;28.90;17.10
37678;DHT22;23517;50.390;8.616;2022-07-12T15:10:12;28.80;17.80
37678;DHT22;23517;50.390;8.616;2022-07-12T15:12:39;28.80;17.40
37678;DHT22;23517;50.390;8.616;2022-07-12T15:15:06;28.90;17.60
37678;DHT22;23517;50.390;8.616;2022-07-12T15:17:34;29.00;17.50
37678;DHT22;23517;50.390;8.616;2022-07-12T15:20:02;29.10;16.90
37678;DHT22;23517;50.390;8.616;2022-07-12T15:22:29;28.90;16.80
37678;DHT22;23517;50.390;8.616;2022-07-12T15:24:58;28.80;17.00
37678;DHT22;23517;50.390;8.616;2022-07-12T15:27:25;28.60;17.50
37678;DHT22;23517;50.390;8.616;2022-07-12T15:29:53;28.50;18.40
37678;DHT22;23517;50.390;8.616;2022-07-12T15:32:20;28.50;18.50
37678;DHT22;23517;50.390;8.616;2022-07-12T15:34:47;28.60;18.50
37678;DHT22;23517;50.390;8.616;2022-07-12T15:37:14;28.70;18.70
37678;DHT22;23517;50.390;8.616;2022-07-12T15:39:41;28.60;18.70
37678;DHT22;23517;50.390;8.616;2022-07-12T15:42:08;28.50;18.20
37678;DHT22;23517;50.390;8.616;2022-07-12T15:44:35;28.60;18.00
37678;DHT22;23517;50.390;8.616;2022-07-12T15:47:02;28.60;18.20
37678;DHT22;23517;50.390;8.616;2022-07-12T15:49:30;28.70;18.70
37678;DHT22;23517;50.390;8.616;2022-07-12T15:51:57;28.60;18.70
37678;DHT22;23517;50.390;8.616;2022-07-12T15:54:42;28.60;18.60
37678;DHT22;23517;50.390;8.616;2022-07-12T15:57:09;28.70;18.60
37678;DHT22;23517;50.390;8.616;2022-07-12T15:59:35;28.90;18.90
37678;DHT22;23517;50.390;8.616;2022-07-12T16:02:02;28.90;19.00
37678;DHT22;23517;50.390;8.616;2022-07-12T16:04:29;29.10;19.40
37678;DHT22;23517;50.390;8.616;2022-07-12T16:06:57;29.20;19.60
37678;DHT22;23517;50.390;8.616;2022-07-12T16:09:24;29.20;19.40
37678;DHT22;23517;50.390;8.616;2022-07-12T16:11:50;29.30;19.10